createdAt,value
2019-03-19T00:00:24.042Z,91.60
2019-03-19T00:02:52.851Z,91.70
2019-03-19T00:05:21.587Z,91.60
2019-03-19T00:07:50.444Z,91.60
2019-03-19T00:10:19.276Z,91.50
2019-03-19T00:12:48.100Z,91.60
2019-03-19T00:15:16.972Z,91.60
2019-03-19T00:17:45.812Z,91.60
2019-03-19T00:20:15.762Z,91.90
2019-03-19T00:22:44.677Z,91.60
2019-03-19T00:25:13.502Z,91.60
2019-03-19T00:27:42.259Z,91.50
2019-03-19T00:30:13.227Z,91.60
2019-03-19T00:32:42.046Z,91.60
2019-03-19T00:35:10.795Z,91.60
2019-03-19T00:37:39.627Z,91.70
2019-03-19T00:40:11.109Z,91.60
2019-03-19T00:42:39.939Z,91.70
2019-03-19T00:45:13.723Z,91.70
2019-03-19T00:47:42.729Z,91.70
2019-03-19T00:50:15.477Z,91.80
2019-03-19T00:52:44.247Z,91.90
2019-03-19T00:55:13.275Z,92.00
2019-03-19T00:57:42.098Z,91.90
2019-03-19T01:00:15.677Z,92.00
2019-03-19T01:02:44.428Z,92.00
2019-03-19T01:05:13.655Z,92.10
2019-03-19T01:07:42.514Z,92.10
2019-03-19T01:10:13.302Z,92.00
2019-03-19T01:12:42.071Z,92.10
2019-03-19T01:15:13.443Z,92.00
2019-03-19T01:17:42.274Z,92.20
2019-03-19T01:20:14.980Z,92.30
2019-03-19T01:22:43.820Z,92.30
2019-03-19T01:25:12.669Z,92.20
2019-03-19T01:27:41.425Z,92.20
2019-03-19T01:30:15.446Z,92.30
2019-03-19T01:32:44.275Z,92.40
2019-03-19T01:35:13.092Z,92.30
2019-03-19T01:37:41.914Z,92.70
2019-03-19T01:40:11.727Z,92.40
2019-03-19T01:42:40.463Z,92.50
2019-03-19T01:45:13.147Z,92.50
2019-03-19T01:47:41.898Z,92.40
2019-03-19T01:50:14.908Z,92.40
2019-03-19T01:52:44.001Z,92.50
2019-03-19T01:55:16.676Z,92.40
2019-03-19T01:57:45.491Z,92.60
2019-03-19T02:00:16.267Z,92.60
2019-03-19T02:02:45.045Z,92.70
2019-03-19T02:05:14.076Z,92.80
2019-03-19T02:07:42.930Z,92.70
2019-03-19T02:10:15.037Z,92.80
2019-03-19T02:12:43.812Z,92.90
2019-03-19T02:15:16.990Z,92.80
2019-03-19T02:17:45.737Z,92.80
2019-03-19T02:20:15.702Z,92.90
2019-03-19T02:22:44.576Z,92.70
2019-03-19T02:25:13.304Z,92.70
2019-03-19T02:27:42.123Z,92.70
2019-03-19T02:30:13.589Z,92.80
2019-03-19T02:32:42.455Z,93.00
2019-03-19T02:35:11.353Z,93.00
2019-03-19T02:37:40.244Z,92.90
2019-03-19T02:40:14.158Z,93.00
2019-03-19T02:42:42.976Z,92.90
2019-03-19T02:45:13.919Z,92.70
2019-03-19T02:47:42.637Z,92.80
2019-03-19T02:50:16.213Z,92.60
2019-03-19T02:52:45.022Z,92.70
2019-03-19T02:55:13.789Z,92.60
2019-03-19T02:57:42.529Z,92.70
2019-03-19T03:00:19.069Z,92.70
2019-03-19T03:02:47.885Z,92.50
2019-03-19T03:05:17.822Z,92.50
2019-03-19T03:07:46.716Z,92.50
2019-03-19T03:10:15.875Z,92.40
2019-03-19T03:12:44.703Z,92.40
2019-03-19T03:15:14.315Z,92.20
2019-03-19T03:17:43.130Z,92.20
2019-03-19T03:20:14.162Z,92.10
2019-03-19T03:22:42.957Z,92.10
2019-03-19T03:25:13.990Z,92.10
2019-03-19T03:27:44.387Z,92.10
2019-03-19T03:30:17.532Z,92.20
2019-03-19T03:32:46.266Z,92.20
2019-03-19T03:35:15.135Z,92.20
2019-03-19T03:37:44.023Z,92.10
2019-03-19T03:40:14.827Z,92.00
2019-03-19T03:42:43.762Z,92.00
2019-03-19T03:45:21.928Z,91.90
2019-03-19T03:47:50.732Z,92.00
2019-03-19T03:50:20.087Z,92.00
2019-03-19T03:52:49.125Z,91.90
2019-03-19T03:55:19.179Z,91.90
2019-03-19T03:57:47.996Z,92.10
2019-03-19T04:00:18.940Z,92.10
2019-03-19T04:02:47.748Z,92.00
2019-03-19T04:05:16.572Z,92.00
2019-03-19T04:07:45.461Z,92.10
2019-03-19T04:10:15.500Z,92.20
2019-03-19T04:12:44.308Z,92.20
2019-03-19T04:15:14.775Z,92.20
2019-03-19T04:17:43.637Z,92.20
2019-03-19T04:20:14.788Z,92.10
2019-03-19T04:22:43.614Z,92.10
2019-03-19T04:25:12.393Z,92.10
2019-03-19T04:27:41.318Z,92.20
2019-03-19T04:30:13.010Z,92.30
2019-03-19T04:32:41.822Z,92.40
2019-03-19T04:35:10.653Z,92.50
2019-03-19T04:37:39.521Z,92.40
2019-03-19T04:40:13.451Z,92.50
2019-03-19T04:42:42.309Z,92.50
2019-03-19T04:45:12.763Z,92.40
2019-03-19T04:47:41.523Z,92.50
2019-03-19T04:50:15.228Z,92.60
2019-03-19T04:52:44.367Z,92.50
2019-03-19T04:55:16.684Z,92.50
2019-03-19T04:57:45.410Z,92.50
2019-03-19T05:00:18.233Z,92.40
2019-03-19T05:02:47.294Z,92.50
2019-03-19T05:05:16.083Z,92.50
2019-03-19T05:07:44.970Z,92.40
2019-03-19T05:10:19.924Z,92.40
2019-03-19T05:12:48.704Z,92.40
2019-03-19T05:15:17.591Z,92.40
2019-03-19T05:17:46.338Z,92.50
2019-03-19T05:20:18.511Z,92.50
2019-03-19T05:22:47.323Z,92.50
2019-03-19T05:25:16.084Z,92.50
2019-03-19T05:27:44.898Z,92.40
2019-03-19T05:30:14.788Z,92.50
2019-03-19T05:32:43.635Z,92.50
2019-03-19T05:35:12.549Z,92.70
2019-03-19T05:37:41.365Z,92.50
2019-03-19T05:40:14.294Z,92.60
2019-03-19T05:42:43.107Z,92.50
2019-03-19T05:45:13.125Z,92.50
2019-03-19T05:47:41.931Z,92.50
2019-03-19T05:50:22.459Z,92.60
2019-03-19T05:52:51.300Z,92.50
2019-03-19T05:55:20.044Z,92.50
2019-03-19T05:57:50.370Z,92.50
2019-03-19T06:00:36.626Z,92.30
2019-03-19T06:03:05.707Z,92.40
2019-03-19T06:05:34.524Z,92.40
2019-03-19T06:08:06.699Z,92.30
2019-03-19T06:10:35.506Z,92.10
2019-03-19T06:13:04.349Z,92.20
2019-03-19T06:15:33.158Z,92.00
2019-03-19T06:18:02.037Z,92.00
2019-03-19T06:20:30.871Z,92.00
2019-03-19T06:22:59.676Z,91.90
2019-03-19T06:25:28.593Z,92.00
2019-03-19T06:28:00.766Z,92.00
2019-03-19T06:30:27.891Z,91.70
2019-03-19T06:32:56.693Z,91.80
2019-03-19T06:35:25.436Z,91.80
2019-03-19T06:37:54.211Z,91.50
2019-03-19T06:40:23.498Z,91.50
2019-03-19T06:42:52.251Z,91.40
2019-03-19T06:45:23.100Z,91.50
2019-03-19T06:47:52.028Z,91.60
2019-03-19T06:50:21.662Z,91.70
2019-03-19T06:52:50.534Z,91.80
2019-03-19T06:55:22.131Z,91.80
2019-03-19T06:57:50.940Z,91.80
2019-03-19T07:00:21.868Z,91.80
2019-03-19T07:02:50.747Z,91.80
2019-03-19T07:05:20.292Z,91.80
2019-03-19T07:07:49.118Z,92.00
2019-03-19T07:10:21.650Z,91.80
2019-03-19T07:12:50.491Z,91.60
2019-03-19T07:15:20.419Z,91.60
2019-03-19T07:17:49.349Z,91.50
2019-03-19T07:20:23.051Z,91.40
2019-03-19T07:22:51.866Z,91.60
2019-03-19T07:25:20.733Z,91.40
2019-03-19T07:27:49.475Z,91.40
2019-03-19T07:30:22.435Z,91.60
2019-03-19T07:32:51.347Z,91.10
2019-03-19T07:35:20.559Z,91.00
2019-03-19T07:37:49.828Z,91.00
2019-03-19T07:40:18.659Z,91.00
2019-03-19T07:42:47.499Z,91.20
2019-03-19T07:45:26.093Z,90.70
2019-03-19T07:47:54.851Z,90.80
2019-03-19T07:50:24.307Z,90.80
2019-03-19T07:52:53.109Z,90.80
2019-03-19T07:55:21.925Z,89.40
2019-03-19T07:57:50.827Z,90.00
2019-03-19T08:00:23.119Z,89.60
2019-03-19T08:02:51.907Z,89.00
2019-03-19T08:05:20.660Z,88.70
2019-03-19T08:07:49.463Z,88.50
2019-03-19T08:10:19.105Z,88.50
2019-03-19T08:12:47.826Z,88.40
2019-03-19T08:15:21.372Z,88.60
2019-03-19T08:17:50.137Z,87.00
2019-03-19T08:20:19.073Z,86.80
2019-03-19T08:22:47.890Z,86.80
2019-03-19T08:25:17.302Z,86.60
2019-03-19T08:27:46.385Z,86.80
2019-03-19T08:30:24.468Z,86.50
2019-03-19T08:32:53.658Z,84.80
2019-03-19T08:35:22.492Z,83.00
2019-03-19T08:37:51.372Z,83.10
2019-03-19T08:40:20.804Z,83.50
2019-03-19T08:42:49.627Z,82.20
2019-03-19T08:45:26.290Z,81.90
2019-03-19T08:47:55.055Z,80.80
2019-03-19T08:50:24.547Z,80.10
2019-03-19T08:52:55.216Z,80.70
2019-03-19T08:55:23.803Z,78.30
2019-03-19T08:57:52.629Z,78.10
2019-03-19T09:00:28.347Z,79.20
2019-03-19T09:02:57.100Z,76.60
2019-03-19T09:05:25.875Z,77.50
2019-03-19T09:07:54.757Z,76.10
2019-03-19T09:10:23.572Z,76.80
2019-03-19T09:12:52.419Z,73.10
2019-03-19T09:15:26.526Z,73.30
2019-03-19T09:17:55.365Z,74.20
2019-03-19T09:20:24.212Z,74.90
2019-03-19T09:22:53.076Z,74.20
2019-03-19T09:25:21.908Z,74.70
2019-03-19T09:27:50.730Z,75.20
2019-03-19T09:30:20.741Z,76.40
2019-03-19T09:32:49.564Z,76.50
2019-03-19T09:35:18.394Z,76.50
2019-03-19T09:37:57.794Z,75.30
2019-03-19T09:40:18.640Z,75.80
2019-03-19T09:42:47.611Z,75.70
2019-03-19T09:45:17.365Z,75.40
2019-03-19T09:47:46.412Z,74.40
2019-03-19T09:50:24.099Z,75.10
2019-03-19T09:52:54.735Z,75.30
2019-03-19T09:55:23.502Z,75.00
2019-03-19T09:57:52.403Z,74.70
2019-03-19T10:00:22.070Z,74.10
2019-03-19T10:02:50.890Z,74.70
2019-03-19T10:05:19.966Z,75.30
2019-03-19T10:07:48.804Z,75.00
2019-03-19T10:10:21.660Z,75.50
2019-03-19T10:12:50.582Z,75.70
2019-03-19T10:15:19.636Z,76.10
2019-03-19T10:17:48.494Z,75.00
2019-03-19T10:20:26.699Z,74.90
2019-03-19T10:22:55.524Z,75.00
2019-03-19T10:25:24.372Z,74.80
2019-03-19T10:27:53.269Z,74.50
2019-03-19T10:30:23.221Z,74.70
2019-03-19T10:32:52.054Z,74.60
2019-03-19T10:35:20.876Z,73.10
2019-03-19T10:37:49.700Z,71.90
2019-03-19T10:40:20.308Z,73.70
2019-03-19T10:42:49.114Z,72.70
2019-03-19T10:45:20.883Z,72.10
2019-03-19T10:47:49.716Z,70.70
2019-03-19T10:50:22.643Z,69.60
2019-03-19T10:52:51.407Z,70.30
2019-03-19T10:55:20.317Z,69.70
2019-03-19T10:57:49.124Z,68.70
2019-03-19T11:00:19.475Z,67.40
2019-03-19T11:02:48.348Z,70.20
2019-03-19T11:05:17.659Z,66.70
2019-03-19T11:07:46.413Z,68.30
2019-03-19T11:10:16.139Z,69.40
2019-03-19T11:12:45.084Z,69.70
2019-03-19T11:15:22.215Z,67.90
2019-03-19T11:17:51.091Z,68.20
2019-03-19T11:20:20.427Z,68.50
2019-03-19T11:22:49.189Z,69.30
2019-03-19T11:25:20.373Z,69.30
2019-03-19T11:27:49.205Z,69.30
2019-03-19T11:30:25.899Z,68.40
2019-03-19T11:32:54.684Z,68.80
2019-03-19T11:35:23.538Z,69.10
2019-03-19T11:37:52.420Z,70.10
2019-03-19T11:40:22.382Z,69.20
2019-03-19T11:42:51.735Z,68.40
2019-03-19T11:45:23.150Z,69.40
2019-03-19T11:47:52.347Z,67.50
2019-03-19T11:50:25.699Z,68.50
2019-03-19T11:52:54.484Z,68.60
2019-03-19T11:55:23.244Z,68.20
2019-03-19T11:57:52.026Z,66.30
2019-03-19T12:00:38.651Z,67.40
2019-03-19T12:03:15.421Z,67.30
2019-03-19T12:05:37.899Z,67.20
2019-03-19T12:08:06.691Z,68.30
2019-03-19T12:10:35.558Z,66.90
2019-03-19T12:13:04.630Z,66.40
2019-03-19T12:15:33.498Z,66.50
2019-03-19T12:18:02.316Z,66.00
2019-03-19T12:20:31.132Z,65.70
2019-03-19T12:23:00.035Z,65.80
2019-03-19T12:25:31.074Z,62.60
2019-03-19T12:27:59.244Z,61.60
2019-03-19T12:30:28.048Z,61.70
2019-03-19T12:32:56.893Z,55.90
2019-03-19T12:35:25.733Z,56.60
2019-03-19T12:37:54.611Z,56.10
2019-03-19T12:40:24.053Z,57.20
2019-03-19T12:42:52.929Z,59.10
2019-03-19T12:45:22.714Z,57.00
2019-03-19T12:47:51.539Z,54.00
2019-03-19T12:50:25.300Z,54.60
2019-03-19T12:52:54.090Z,53.00
2019-03-19T12:55:22.859Z,52.70
2019-03-19T12:57:51.635Z,53.60
2019-03-19T13:00:33.613Z,52.20
2019-03-19T13:02:55.065Z,52.70
2019-03-19T13:05:23.820Z,53.30
2019-03-19T13:07:52.699Z,54.40
2019-03-19T13:10:23.388Z,56.00
2019-03-19T13:12:52.196Z,54.90
2019-03-19T13:15:21.510Z,56.30
2019-03-19T13:17:50.276Z,56.20
2019-03-19T13:20:21.012Z,56.80
2019-03-19T13:22:49.909Z,55.90
2019-03-19T13:25:22.327Z,56.60
2019-03-19T13:27:51.730Z,56.40
2019-03-19T13:30:31.079Z,55.50
2019-03-19T13:32:59.828Z,56.80
2019-03-19T13:35:28.675Z,56.00
2019-03-19T13:37:57.491Z,55.70
2019-03-19T13:40:26.339Z,56.30
2019-03-19T13:42:55.081Z,55.70
2019-03-19T13:45:24.499Z,56.50
2019-03-19T13:47:53.259Z,56.60
2019-03-19T13:50:22.563Z,57.10
2019-03-19T13:52:51.449Z,58.30
2019-03-19T13:55:23.899Z,57.70
2019-03-19T13:57:52.764Z,57.20
2019-03-19T14:00:22.573Z,56.80
2019-03-19T14:02:51.412Z,57.00
2019-03-19T14:05:20.353Z,57.80
2019-03-19T14:07:49.252Z,56.80
2019-03-19T14:10:19.215Z,57.20
2019-03-19T14:12:48.452Z,57.80
2019-03-19T14:15:22.595Z,57.60
2019-03-19T14:17:51.450Z,57.00
2019-03-19T14:20:20.315Z,55.60
2019-03-19T14:22:49.195Z,54.30
2019-03-19T14:25:18.298Z,52.30
2019-03-19T14:27:47.133Z,52.90
2019-03-19T14:30:23.150Z,53.40
2019-03-19T14:32:51.939Z,55.00
2019-03-19T14:35:20.771Z,54.00
2019-03-19T14:37:49.607Z,55.30
2019-03-19T14:40:22.675Z,54.30
2019-03-19T14:42:51.540Z,54.40
2019-03-19T14:45:20.404Z,53.90
2019-03-19T14:47:49.267Z,54.10
2019-03-19T14:50:26.131Z,55.20
2019-03-19T14:52:54.980Z,55.40
2019-03-19T14:55:23.763Z,56.20
2019-03-19T14:57:52.683Z,55.60
2019-03-19T15:00:24.285Z,56.80
2019-03-19T15:02:53.099Z,57.00
2019-03-19T15:05:22.089Z,56.70
2019-03-19T15:07:50.836Z,55.50
2019-03-19T15:10:21.628Z,56.40
2019-03-19T15:12:50.507Z,56.10
2019-03-19T15:15:22.734Z,56.00
2019-03-19T15:17:51.580Z,56.60
2019-03-19T15:20:23.411Z,55.90
2019-03-19T15:22:52.260Z,55.90
2019-03-19T15:25:21.932Z,56.80
2019-03-19T15:27:50.786Z,56.50
2019-03-19T15:30:21.084Z,56.60
2019-03-19T15:32:50.062Z,56.20
2019-03-19T15:35:18.955Z,56.10
2019-03-19T15:37:47.729Z,55.50
2019-03-19T15:40:17.382Z,55.40
2019-03-19T15:42:46.228Z,55.70
2019-03-19T15:45:29.868Z,55.20
2019-03-19T15:47:58.682Z,54.30
2019-03-19T15:50:27.539Z,53.50
2019-03-19T15:52:56.355Z,54.00
2019-03-19T15:55:25.247Z,55.30
2019-03-19T15:57:53.994Z,55.20
2019-03-19T16:00:23.109Z,55.10
2019-03-19T16:02:52.028Z,55.30
2019-03-19T16:05:20.853Z,56.00
2019-03-19T16:07:49.691Z,56.10
2019-03-19T16:10:18.980Z,56.30
2019-03-19T16:12:47.812Z,55.80
2019-03-19T16:15:17.907Z,57.00
2019-03-19T16:17:46.690Z,57.00
2019-03-19T16:20:20.430Z,57.70
2019-03-19T16:22:49.187Z,58.70
2019-03-19T16:25:18.019Z,58.40
2019-03-19T16:27:46.778Z,58.70
2019-03-19T16:30:18.579Z,58.40
2019-03-19T16:32:47.518Z,58.80
2019-03-19T16:35:16.348Z,58.80
2019-03-19T16:37:45.153Z,59.90
2019-03-19T16:40:20.723Z,59.50
2019-03-19T16:42:49.493Z,59.50
2019-03-19T16:45:18.762Z,60.30
2019-03-19T16:47:47.709Z,59.80
2019-03-19T16:50:18.499Z,61.00
2019-03-19T16:52:48.619Z,60.70
2019-03-19T16:55:19.380Z,61.30
2019-03-19T16:57:48.223Z,61.90
2019-03-19T17:00:22.202Z,63.40
2019-03-19T17:02:51.116Z,64.50
2019-03-19T17:05:20.060Z,65.80
2019-03-19T17:07:48.884Z,66.90
2019-03-19T17:10:19.784Z,67.80
2019-03-19T17:12:48.619Z,68.50
2019-03-19T17:15:17.757Z,69.20
2019-03-19T17:17:46.692Z,70.00
2019-03-19T17:20:16.714Z,70.90
2019-03-19T17:22:45.584Z,71.60
2019-03-19T17:25:17.028Z,72.10
2019-03-19T17:27:45.795Z,73.00
2019-03-19T17:30:20.290Z,73.50
2019-03-19T17:32:49.068Z,73.60
2019-03-19T17:35:17.916Z,74.00
2019-03-19T17:37:46.836Z,74.60
2019-03-19T17:40:16.395Z,74.90
2019-03-19T17:42:45.263Z,75.10
2019-03-19T17:45:15.345Z,75.80
2019-03-19T17:47:44.364Z,76.60
2019-03-19T17:50:18.778Z,76.40
2019-03-19T17:52:49.798Z,76.60
2019-03-19T17:55:18.774Z,77.60
2019-03-19T17:57:47.603Z,77.90
2019-03-19T18:00:22.148Z,77.90
2019-03-19T18:02:50.979Z,78.10
2019-03-19T18:05:19.731Z,79.50
2019-03-19T18:07:48.596Z,78.90
2019-03-19T18:10:17.651Z,78.90
2019-03-19T18:12:46.450Z,78.70
2019-03-19T18:15:19.340Z,79.40
2019-03-19T18:17:48.163Z,79.60
2019-03-19T18:20:17.622Z,79.70
2019-03-19T18:22:46.418Z,79.60
2019-03-19T18:25:16.559Z,79.30
2019-03-19T18:27:46.416Z,79.10
2019-03-19T18:30:20.125Z,79.40
2019-03-19T18:32:48.874Z,80.30
2019-03-19T18:35:17.708Z,80.50
2019-03-19T18:37:46.696Z,80.70
2019-03-19T18:40:20.493Z,81.30
2019-03-19T18:42:49.353Z,81.60
2019-03-19T18:45:21.811Z,81.30
2019-03-19T18:47:52.668Z,81.70
2019-03-19T18:50:22.237Z,81.80
2019-03-19T18:52:51.105Z,82.00
2019-03-19T18:55:19.940Z,82.40
2019-03-19T18:57:48.782Z,82.60
2019-03-19T19:00:18.683Z,82.50
2019-03-19T19:02:50.342Z,83.10
2019-03-19T19:05:18.964Z,83.10
2019-03-19T19:07:47.764Z,83.40
2019-03-19T19:10:17.245Z,83.60
2019-03-19T19:12:45.979Z,84.00
2019-03-19T19:15:17.060Z,83.90
2019-03-19T19:17:45.853Z,83.50
2019-03-19T19:20:15.573Z,83.40
2019-03-19T19:22:44.468Z,83.60
2019-03-19T19:25:15.093Z,83.70
2019-03-19T19:27:43.931Z,83.90
2019-03-19T19:30:24.070Z,83.30
2019-03-19T19:33:01.451Z,84.90
2019-03-19T19:35:23.396Z,84.30
2019-03-19T19:37:52.267Z,84.30
2019-03-19T19:40:21.020Z,84.60
2019-03-19T19:42:49.862Z,84.80
2019-03-19T19:45:19.462Z,84.90
2019-03-19T19:47:48.302Z,85.10
2019-03-19T19:50:19.099Z,85.10
2019-03-19T19:52:47.996Z,85.10
2019-03-19T19:55:17.025Z,85.20
2019-03-19T19:57:45.847Z,85.40
2019-03-19T20:00:21.795Z,85.70
2019-03-19T20:02:50.654Z,85.80
2019-03-19T20:05:19.451Z,86.00
2019-03-19T20:07:48.307Z,86.20
2019-03-19T20:10:20.109Z,86.50
2019-03-19T20:12:48.949Z,86.40
2019-03-19T20:15:17.819Z,86.40
2019-03-19T20:17:46.854Z,86.50
2019-03-19T20:20:18.243Z,86.90
2019-03-19T20:22:47.124Z,86.90
2019-03-19T20:25:15.866Z,86.90
2019-03-19T20:27:44.690Z,87.20
2019-03-19T20:30:19.430Z,87.50
2019-03-19T20:32:48.259Z,87.90
2019-03-19T20:35:17.095Z,87.90
2019-03-19T20:37:45.917Z,87.90
2019-03-19T20:40:15.955Z,88.20
2019-03-19T20:42:44.932Z,88.30
2019-03-19T20:45:18.932Z,88.20
2019-03-19T20:47:47.764Z,88.40
2019-03-19T20:50:30.437Z,88.50
2019-03-19T20:52:59.175Z,88.60
2019-03-19T20:55:27.931Z,88.80
2019-03-19T20:57:56.860Z,88.90
2019-03-19T21:00:25.668Z,88.80
2019-03-19T21:02:54.411Z,88.90
2019-03-19T21:05:23.268Z,88.90
2019-03-19T21:07:52.108Z,88.90
2019-03-19T21:10:24.821Z,88.90
2019-03-19T21:12:53.685Z,89.30
2019-03-19T21:15:26.486Z,89.40
2019-03-19T21:17:55.316Z,89.30
2019-03-19T21:20:24.113Z,89.40
2019-03-19T21:22:52.941Z,89.40
2019-03-19T21:25:21.691Z,89.40
2019-03-19T21:27:50.566Z,89.40
2019-03-19T21:30:23.124Z,89.50
2019-03-19T21:32:51.859Z,89.40
2019-03-19T21:35:21.779Z,89.70
2019-03-19T21:37:50.644Z,90.10
2019-03-19T21:40:19.572Z,89.90
2019-03-19T21:42:48.451Z,90.00
2019-03-19T21:45:19.459Z,90.00
2019-03-19T21:47:48.316Z,90.10
2019-03-19T21:50:24.580Z,90.00
2019-03-19T21:52:53.523Z,90.10
2019-03-19T21:55:22.331Z,90.10
2019-03-19T21:57:51.214Z,90.20
2019-03-19T22:00:22.222Z,90.20
2019-03-19T22:02:51.077Z,90.30
2019-03-19T22:05:20.016Z,90.40
2019-03-19T22:07:48.852Z,90.50
2019-03-19T22:10:18.884Z,90.50
2019-03-19T22:12:49.268Z,90.60
2019-03-19T22:15:19.506Z,90.70
2019-03-19T22:17:48.259Z,90.80
2019-03-19T22:20:17.118Z,90.80
2019-03-19T22:22:45.918Z,90.90
2019-03-19T22:25:15.570Z,91.00
2019-03-19T22:27:44.572Z,91.00
2019-03-19T22:30:18.255Z,91.30
2019-03-19T22:32:47.068Z,91.10
2019-03-19T22:35:15.891Z,91.10
2019-03-19T22:37:44.660Z,91.30
2019-03-19T22:40:18.277Z,91.20
2019-03-19T22:42:48.340Z,91.20
2019-03-19T22:45:20.245Z,91.10
2019-03-19T22:47:49.004Z,91.20
2019-03-19T22:50:18.780Z,91.20
2019-03-19T22:52:47.739Z,91.20
2019-03-19T22:55:16.603Z,91.20
2019-03-19T22:57:45.500Z,91.30
2019-03-19T23:00:18.805Z,91.50
2019-03-19T23:02:47.619Z,91.30
2019-03-19T23:05:16.474Z,91.40
2019-03-19T23:07:45.245Z,91.50
2019-03-19T23:10:14.091Z,91.60
2019-03-19T23:12:42.996Z,91.70
2019-03-19T23:15:12.904Z,91.60
2019-03-19T23:17:41.932Z,91.60
2019-03-19T23:20:12.912Z,91.60
2019-03-19T23:22:41.715Z,91.80
2019-03-19T23:25:11.034Z,91.80
2019-03-19T23:27:39.900Z,91.80
2019-03-19T23:30:22.212Z,91.70
2019-03-19T23:32:51.085Z,91.80
2019-03-19T23:35:19.835Z,91.80
2019-03-19T23:37:48.587Z,91.80
2019-03-19T23:40:18.883Z,91.80
2019-03-19T23:42:47.595Z,91.90
2019-03-19T23:45:16.346Z,91.90
2019-03-19T23:47:45.217Z,91.80
2019-03-19T23:50:18.644Z,91.80
2019-03-19T23:52:47.755Z,91.80
2019-03-19T23:55:16.556Z,92.00
2019-03-19T23:57:45.299Z,92.10
